Time;durP1;ratioP1;P1;durP2;ratioP2;P2;SDS_P1;SDS_P2;PMS_P1;PMS_P2;Temp;Humidity;BMP_temperature;BMP_pressure;BME280_temperature;BME280_humidity;BME280_pressure;Samples;Min_cycle;Max_cycle;Signal;HPM_P1;HPM_P2
2021/01/10 00:00:22;;;;;;;23.15;11.07;;;1.50;99.90;;;-0.39;95.65;102174.63;5039816;28;20041;-40
2021/01/10 00:02:52;;;;;;;23.02;10.70;;;1.50;99.90;;;-0.35;95.77;102157.34;5056421;28;20037;-40
2021/01/10 00:05:30;;;;;;;24.15;10.30;;;1.50;99.90;;;-0.33;95.22;102158.09;5072439;28;20060;-40
2021/01/10 00:07:59;;;;;;;23.08;10.65;;;1.50;99.90;;;-0.30;95.49;102160.56;5072791;28;20394;-40
2021/01/10 00:10:28;;;;;;;21.42;10.15;;;1.60;99.90;;;-0.38;95.08;102162.94;5072642;28;20059;-40
2021/01/10 00:13:06;;;;;;;25.20;10.85;;;1.50;99.90;;;-0.38;95.05;102165.63;5055166;28;20396;-40
2021/01/10 00:15:33;;;;;;;21.53;10.30;;;1.50;99.90;;;-0.40;94.95;102162.19;5089265;28;20049;-40
2021/01/10 00:18:05;;;;;;;19.55;9.32;;;1.50;99.90;;;-0.46;94.99;102155.44;5040057;28;20040;-40
2021/01/10 00:20:33;;;;;;;23.00;10.55;;;1.50;99.90;;;-0.45;94.81;102158.00;5073075;28;20143;-40
2021/01/10 00:23:02;;;;;;;25.50;10.85;;;1.50;99.90;;;-0.49;95.04;102158.31;5072551;28;20051;-40
2021/01/10 00:25:29;;;;;;;21.80;9.52;;;1.40;99.90;;;-0.49;95.01;102158.31;5055601;28;20048;-39
2021/01/10 00:27:57;;;;;;;24.75;11.55;;;1.40;99.90;;;-0.50;95.46;102154.81;5039951;28;20044;-40
2021/01/10 00:30:24;;;;;;;25.40;11.30;;;1.40;99.90;;;-0.50;95.05;102161.97;5022902;28;20071;-40
2021/01/10 00:32:55;;;;;;;22.67;10.93;;;1.40;99.90;;;-0.52;95.35;102164.78;5022824;28;20406;-40
2021/01/10 00:35:25;;;;;;;23.35;11.13;;;1.40;99.90;;;-0.53;95.24;102163.06;5072020;28;20041;-40
2021/01/10 00:37:57;;;;;;;23.40;10.60;;;1.40;99.90;;;-0.55;95.56;102162.28;5055551;28;20045;-40
2021/01/10 00:40:26;;;;;;;25.42;10.13;;;1.30;99.90;;;-0.56;95.67;102160.56;5072021;28;20106;-40
2021/01/10 00:42:54;;;;;;;24.38;10.13;;;1.40;99.90;;;-0.52;95.72;102166.59;5072312;28;20237;-40
2021/01/10 00:45:21;;;;;;;23.70;10.63;;;1.40;99.90;;;-0.53;95.35;102160.38;5039156;28;20124;-40
2021/01/10 00:47:54;;;;;;;23.63;10.52;;;1.40;99.90;;;-0.56;95.10;102173.97;5056115;28;20052;-40
2021/01/10 00:50:31;;;;;;;21.27;9.55;;;1.40;99.90;;;-0.65;95.56;102153.16;5057045;28;20052;-40
2021/01/10 00:52:59;;;;;;;24.88;10.50;;;1.30;99.90;;;-0.59;95.11;102168.81;5039680;28;20193;-40
2021/01/10 00:55:27;;;;;;;24.13;10.05;;;1.30;99.90;;;-0.60;95.64;102167.97;5071936;28;20466;-40
2021/01/10 00:57:55;;;;;;;23.02;11.18;;;1.30;99.90;;;-0.57;95.26;102166.91;5039340;28;20137;-40
2021/01/10 01:00:26;;;;;;;22.55;10.65;;;1.30;99.90;;;-0.59;95.88;102168.81;5071727;28;20107;-40
2021/01/10 01:02:53;;;;;;;19.17;9.50;;;1.30;99.90;;;-0.60;95.49;102169.78;5022369;28;20066;-39
2021/01/10 01:05:24;;;;;;;22.00;10.32;;;1.30;99.90;;;-0.63;95.39;102176.25;5039634;28;20056;-40
2021/01/10 01:07:54;;;;;;;22.30;9.88;;;1.30;99.90;;;-0.66;95.09;102178.25;5039488;28;20465;-40
2021/01/10 01:10:28;;;;;;;19.33;9.70;;;1.30;99.90;;;-0.66;95.25;102180.94;5025544;28;20071;-40
2021/01/10 01:12:55;;;;;;;19.33;9.27;;;1.30;99.90;;;-0.65;95.25;102177.31;5038301;28;20049;-40
2021/01/10 01:15:22;;;;;;;21.13;9.93;;;1.30;99.90;;;-0.66;95.63;102176.47;5038213;28;20408;-40
2021/01/10 01:17:50;;;;;;;22.07;11.00;;;1.30;99.90;;;-0.62;95.59;102180.63;5005924;28;20040;-40
2021/01/10 01:20:17;;;;;;;20.83;10.20;;;1.30;99.90;;;-0.59;95.94;102188.47;5054916;28;20051;-40
2021/01/10 01:22:45;;;;;;;23.90;10.40;;;1.30;99.90;;;-0.58;96.14;102175.91;5038214;28;20059;-40
2021/01/10 01:25:13;;;;;;;23.13;11.00;;;1.30;99.90;;;-0.55;96.04;102180.22;5053735;28;20041;-40
2021/01/10 01:27:41;;;;;;;22.23;10.38;;;1.30;99.90;;;-0.56;95.27;102179.34;5054525;28;20090;-40
2021/01/10 01:30:10;;;;;;;25.13;10.65;;;1.30;99.90;;;-0.54;95.53;102181.94;5022113;28;20115;-40
2021/01/10 01:32:37;;;;;;;23.13;10.52;;;1.40;99.90;;;-0.55;95.56;102183.72;5070912;28;20048;-40
2021/01/10 01:35:06;;;;;;;24.13;10.93;;;1.40;99.90;;;-0.57;95.62;102182.97;5038007;28;20418;-40
2021/01/10 01:37:35;;;;;;;23.20;10.45;;;1.40;99.90;;;-0.57;95.28;102182.97;5054585;28;20423;-40
2021/01/10 01:40:06;;;;;;;21.38;9.65;;;1.40;99.90;;;-0.62;95.64;102183.31;5038518;28;20064;-40
2021/01/10 01:42:35;;;;;;;21.90;9.95;;;1.30;99.90;;;-0.63;95.22;102184.28;5088629;28;20453;-40
2021/01/10 01:45:07;;;;;;;22.58;10.43;;;1.30;99.90;;;-0.66;95.91;102187.19;5070836;28;20086;-40
2021/01/10 01:47:36;;;;;;;23.17;9.98;;;1.30;99.90;;;-0.67;95.11;102185.44;5070777;28;20048;-40
2021/01/10 01:50:06;;;;;;;25.40;10.18;;;1.30;99.90;;;-0.69;95.83;102184.69;5054060;28;20033;-40
2021/01/10 01:52:34;;;;;;;20.98;9.73;;;1.30;99.90;;;-0.67;95.62;102193.47;5070696;28;20094;-40
2021/01/10 01:55:05;;;;;;;23.58;10.15;;;1.20;99.90;;;-0.70;95.46;102185.66;5037641;28;20064;-40
2021/01/10 01:57:33;;;;;;;20.45;9.40;;;1.30;99.90;;;-0.71;95.30;102186.63;5053986;28;20568;-40
2021/01/10 02:00:01;;;;;;;25.17;10.30;;;1.20;99.90;;;-0.74;95.97;102182.34;5037910;28;20106;-40
2021/01/10 02:02:29;;;;;;;25.80;10.90;;;1.20;99.90;;;-0.71;95.87;102191.13;5038068;28;20044;-40
2021/01/10 02:05:02;;;;;;;25.58;10.70;;;1.20;99.90;;;-0.76;95.63;102189.63;5054086;28;20120;-40
2021/01/10 02:07:51;;;;;;;19.15;9.35;;;1.20;99.90;;;-0.78;96.00;102188.00;5037368;28;20064;-40
2021/01/10 02:10:27;;;;;;;19.83;9.60;;;1.20;99.90;;;-0.80;96.11;102192.59;5038635;28;20045;-40
2021/01/10 02:13:00;;;;;;;22.23;9.45;;;1.20;99.90;;;-0.81;95.69;102183.69;5053244;28;20047;-40
2021/01/10 02:15:35;;;;;;;22.83;9.25;;;1.20;99.90;;;-0.82;95.64;102178.47;5053742;28;20052;-40
2021/01/10 02:18:08;;;;;;;19.00;9.15;;;1.10;99.90;;;-0.85;96.13;102189.38;5070446;28;20044;-40
2021/01/10 02:20:39;;;;;;;23.35;9.48;;;1.10;99.90;;;-0.86;95.87;102180.47;5070229;28;20114;-40
2021/01/10 02:23:27;;;;;;;22.15;9.80;;;1.10;99.90;;;-0.86;95.63;102177.78;5053610;28;20415;-40
2021/01/10 02:25:58;;;;;;;21.38;10.27;;;1.10;99.90;;;-0.88;95.98;102180.59;5070317;28;20057;-40
2021/01/10 02:28:30;;;;;;;20.10;9.38;;;1.10;99.90;;;-0.89;96.06;102164.59;5087061;28;20122;-40
2021/01/10 02:31:01;;;;;;;23.48;10.23;;;1.10;99.90;;;-0.87;96.22;102178.75;5037640;28;20045;-40
2021/01/10 02:33:52;;;;;;;21.83;9.65;;;1.10;99.90;;;-0.84;95.75;102172.34;5070012;28;20040;-40
2021/01/10 02:36:27;;;;;;;16.88;8.38;;;1.10;99.90;;;-0.82;96.26;102167.75;5054776;28;20068;-40
2021/01/10 02:39:06;;;;;;;20.77;9.48;;;1.10;99.90;;;-0.78;96.17;102166.56;5076876;28;20057;-40
2021/01/10 02:41:45;;;;;;;24.83;10.13;;;1.10;99.90;;;-0.79;95.96;102157.69;5076820;28;20040;-40
2021/01/10 02:44:36;;;;;;;22.33;9.48;;;1.10;99.90;;;-0.75;95.47;102159.19;5059903;28;20071;-40
2021/01/10 02:47:07;;;;;;;20.48;9.50;;;1.20;99.90;;;-0.71;95.38;102164.31;5060277;28;20044;-40
2021/01/10 02:49:35;;;;;;;23.73;10.40;;;1.20;99.90;;;-0.75;95.10;102156.50;5076944;28;20057;-40
2021/01/10 02:52:03;;;;;;;;;;;1.20;99.90;;;-0.71;95.05;102173.22;5061133;28;20049;-40
2021/01/10 02:54:30;;;;;;;21.00;8.98;;;1.20;99.90;;;-0.75;95.08;102163.66;5043358;28;19921;-40
2021/01/10 02:56:59;;;;;;;20.02;8.85;;;1.20;99.90;;;-0.84;95.47;102167.81;5044240;28;20040;-40
2021/01/10 02:59:32;;;;;;;22.35;10.27;;;1.20;99.90;;;-0.91;95.25;102162.06;5077440;28;20433;-40
2021/01/10 03:02:05;;;;;;;19.45;8.50;;;1.10;99.90;;;-0.94;95.17;102167.59;5076671;28;20047;-40
2021/01/10 03:04:35;;;;;;;20.48;9.55;;;1.00;99.90;;;-0.99;95.74;102160.84;5059766;28;20048;-40
2021/01/10 03:07:06;;;;;;;19.85;9.25;;;1.00;99.90;;;-1.07;95.94;102170.25;5043871;28;20127;-40
2021/01/10 03:09:34;;;;;;;18.83;8.70;;;0.90;99.90;;;-1.16;96.16;102177.09;5076578;28;20044;-40
2021/01/10 03:12:14;;;;;;;19.88;8.90;;;0.90;99.90;;;-1.25;95.47;102160.78;5059757;28;20094;-40
2021/01/10 03:14:45;;;;;;;18.73;8.82;;;0.80;99.90;;;-1.35;95.79;102158.69;5027467;28;20048;-40
2021/01/10 03:17:27;;;;;;;16.92;8.48;;;0.70;99.90;;;-1.42;95.89;102160.06;5043832;28;20410;-40
2021/01/10 03:19:55;;;;;;;16.35;7.97;;;0.60;99.90;;;-1.53;95.95;102162.59;5059765;28;20048;-40
2021/01/10 03:22:22;;;;;;;17.90;8.38;;;0.50;99.90;;;-1.63;95.22;102157.81;5027107;28;20062;-40
2021/01/10 03:24:50;;;;;;;19.73;8.88;;;0.50;99.90;;;-1.72;95.32;102155.75;5043395;28;20076;-40
2021/01/10 03:27:17;;;;;;;15.88;7.93;;;0.40;99.90;;;-1.78;96.16;102150.78;5027295;28;20089;-40
2021/01/10 03:29:45;;;;;;;18.10;7.80;;;0.30;99.90;;;-1.83;95.74;102152.91;5010624;28;20052;-40
2021/01/10 03:32:13;;;;;;;17.23;7.95;;;0.30;99.90;;;-1.86;94.81;102145.06;5043582;28;20400;-40
2021/01/10 03:34:41;;;;;;;14.52;6.95;;;0.20;99.90;;;-1.90;94.78;102150.63;5059423;28;20056;-40
2021/01/10 03:37:09;;;;;;;14.00;6.97;;;0.20;99.90;;;-1.95;95.54;102158.06;5076546;28;20120;-40
2021/01/10 03:39:37;;;;;;;;;;;0.10;99.90;;;-2.00;94.95;102156.63;5060440;28;20037;-40
2021/01/10 03:42:05;;;;;;;18.38;7.85;;;0.10;99.90;;;-2.02;95.53;102151.41;5059763;28;19967;-40
2021/01/10 03:44:33;;;;;;;16.73;7.63;;;0.00;99.90;;;-2.06;94.76;102152.56;5093040;28;20044;-40
2021/01/10 03:47:01;;;;;;;21.55;8.70;;;0.00;99.90;;;-2.09;95.03;102142.91;5043559;28;20047;-40
2021/01/10 03:49:29;;;;;;;;;;;0.00;99.90;;;-2.14;94.60;102146.81;5072906;28;20060;-40
2021/01/10 03:51:57;;;;;;;16.50;7.05;;;-0.10;99.90;;;-2.18;95.63;102152.34;5056503;28;19920;-40
2021/01/10 03:54:24;;;;;;;17.27;7.90;;;-0.10;99.90;;;-2.21;95.04;102152.56;5056215;28;20041;-40
2021/01/10 03:56:52;;;;;;;19.90;8.48;;;-0.10;99.90;;;-2.24;95.13;102142.06;5039809;28;20078;-40
2021/01/10 03:59:19;;;;;;;18.92;8.10;;;-0.20;99.90;;;-2.22;95.54;102147.31;5023679;28;20055;-40
2021/01/10 04:01:47;;;;;;;17.38;7.90;;;-0.10;99.90;;;-2.25;95.09;102145.69;5039675;28;20047;-40
2021/01/10 04:04:15;;;;;;;15.85;7.20;;;-0.20;99.90;;;-2.31;95.55;102154.09;5039798;28;20040;-40
2021/01/10 04:06:42;;;;;;;20.75;8.80;;;-0.20;99.90;;;-2.37;95.50;102151.81;5023568;28;20127;-40
2021/01/10 04:09:10;;;;;;;16.77;7.40;;;-0.30;99.90;;;-2.46;96.04;102143.38;5056485;28;20461;-40
2021/01/10 04:11:37;;;;;;;15.93;7.50;;;-0.30;99.90;;;-2.48;95.97;102149.78;5006714;28;20040;-40
2021/01/10 04:14:05;;;;;;;16.48;8.27;;;-0.40;99.90;;;-2.54;95.62;102143.00;5023289;28;20512;-40
2021/01/10 04:16:34;;;;;;;15.20;7.18;;;-0.40;99.90;;;-2.56;95.37;102136.91;5040024;28;20033;-40
2021/01/10 04:19:02;;;;;;;16.08;7.65;;;-0.40;99.90;;;-2.61;95.49;102145.19;5007390;28;20461;-40
2021/01/10 04:21:39;;;;;;;20.92;8.70;;;-0.50;99.90;;;-2.62;96.08;102151.50;5022966;28;20405;-40
2021/01/10 04:24:07;;;;;;;17.38;7.63;;;-0.50;99.90;;;-2.62;96.50;102142.63;5039487;28;20493;-40
2021/01/10 04:26:38;;;;;;;;;;;-0.50;99.90;;;-2.63;96.48;102143.59;5039891;28;20097;-40
2021/01/10 04:29:06;;;;;;;16.00;7.53;;;-0.50;99.90;;;-2.67;95.86;102142.91;5039429;28;20003;-40
2021/01/10 04:31:33;;;;;;;17.08;7.18;;;-0.50;99.90;;;-2.70;96.24;102150.22;5039422;28;20190;-40
2021/01/10 04:34:01;;;;;;;16.42;7.80;;;-0.60;99.90;;;-2.76;95.77;102146.97;5040442;28;20045;-40
2021/01/10 04:36:30;;;;;;;18.40;7.47;;;-0.60;99.90;;;-2.83;96.34;102150.97;5023001;28;20041;-40
2021/01/10 04:38:58;;;;;;;19.08;8.00;;;-0.70;99.90;;;-2.87;95.88;102149.44;5055576;28;20575;-40
2021/01/10 04:41:26;;;;;;;16.48;7.82;;;-0.70;99.90;;;-2.89;96.47;102146.00;5055833;28;20097;-40
2021/01/10 04:43:55;;;;;;;16.45;7.82;;;-0.70;99.90;;;-2.93;95.88;102142.66;5055401;28;20045;-40
2021/01/10 04:46:25;;;;;;;15.90;7.70;;;-0.80;99.90;;;-2.98;96.01;102139.41;5038830;28;20132;-40
2021/01/10 04:48:55;;;;;;;15.85;7.70;;;-0.80;99.90;;;-3.02;96.65;102145.88;5055464;28;20136;-40
2021/01/10 04:51:27;;;;;;;14.60;7.35;;;-0.90;99.90;;;-3.07;95.69;102145.28;5055713;28;20098;-40
2021/01/10 04:54:00;;;;;;;13.98;7.30;;;-0.90;99.90;;;-3.12;96.40;102145.56;5071672;28;20540;-40
2021/01/10 04:56:30;;;;;;;15.07;6.90;;;-1.00;99.90;;;-3.16;96.14;102152.03;5038623;28;20392;-40
2021/01/10 04:59:04;;;;;;;13.20;6.75;;;-1.00;99.90;;;-3.20;95.86;102146.00;5071624;28;20045;-40
2021/01/10 05:01:45;;;;;;;17.42;7.90;;;-1.10;99.90;;;-3.12;95.89;102150.03;5039184;28;20054;-40
2021/01/10 05:04:13;;;;;;;19.90;8.27;;;-1.10;99.90;;;-3.11;96.42;102147.28;5038968;28;20095;-40
2021/01/10 05:06:42;;;;;;;18.17;8.73;;;-1.00;99.90;;;-3.04;96.74;102148.63;5022277;28;20510;-40
2021/01/10 05:09:10;;;;;;;24.90;10.27;;;-1.00;99.90;;;-2.95;96.75;102141.88;5071444;28;20546;-40
2021/01/10 05:11:38;;;;;;;24.67;9.55;;;-0.90;99.90;;;-2.82;96.30;102146.47;5021835;28;20040;-40
2021/01/10 05:14:06;;;;;;;19.88;9.65;;;-0.80;99.90;;;-2.75;96.71;102148.69;5021866;28;20041;-40
2021/01/10 05:16:35;;;;;;;24.98;10.60;;;-0.70;99.90;;;-2.64;96.54;102147.22;5038791;28;20086;-40
2021/01/10 05:19:04;;;;;;;24.58;10.63;;;-0.70;99.90;;;-2.57;96.67;102150.34;5054966;28;20040;-40
2021/01/10 05:21:32;;;;;;;24.08;10.98;;;-0.60;99.90;;;-2.49;97.28;102148.94;5021885;28;20036;-40
2021/01/10 05:24:00;;;;;;;20.98;10.52;;;-0.50;99.90;;;-2.41;97.55;102147.59;5038186;28;20054;-40
2021/01/10 05:26:37;;;;;;;29.77;11.88;;;-0.40;99.90;;;-2.35;97.73;102148.06;5072078;28;20040;-40
2021/01/10 05:29:10;;;;;;;25.20;10.65;;;-0.40;99.90;;;-2.27;97.67;102146.72;5072112;28;20098;-40
2021/01/10 05:31:41;;;;;;;28.38;12.05;;;-0.30;99.90;;;-2.24;97.77;102152.75;5054466;28;20051;-40
2021/01/10 05:34:16;;;;;;;28.95;11.02;;;-0.30;99.90;;;-2.13;97.53;102151.22;5054660;28;20068;-40
2021/01/10 05:36:44;;;;;;;33.75;11.30;;;-0.20;99.90;;;-2.05;97.73;102151.59;5054572;28;20044;-40
2021/01/10 05:39:31;;;;;;;33.55;12.32;;;-0.10;99.90;;;-2.00;97.78;102159.31;5021567;28;20037;-40
2021/01/10 05:42:09;;;;;;;31.98;12.98;;;-0.10;99.90;;;-1.94;97.61;102151.78;5039442;28;20126;-40
2021/01/10 05:44:49;;;;;;;38.55;12.50;;;0.00;99.90;;;-1.88;97.96;102146.00;5070939;28;20052;-40
2021/01/10 05:47:19;;;;;;;33.97;13.45;;;0.00;99.90;;;-1.89;98.05;102149.66;5038101;28;20045;-40
2021/01/10 05:49:51;;;;;;;34.95;12.77;;;0.00;99.90;;;-1.85;97.47;102141.47;5038166;28;20123;-40
2021/01/10 05:52:21;;;;;;;41.50;13.75;;;0.10;99.90;;;-1.88;98.18;102143.34;5054834;28;20061;-39
2021/01/10 05:54:53;;;;;;;31.05;12.07;;;0.10;99.90;;;-1.83;98.58;102139.53;5054248;28;20098;-40
2021/01/10 05:57:30;;;;;;;26.98;11.73;;;0.10;99.90;;;-1.83;98.32;102144.88;5071950;28;20044;-40
2021/01/10 06:00:00;;;;;;;29.52;12.55;;;0.10;99.90;;;-1.81;98.16;102142.97;5054130;28;20446;-40
2021/01/10 06:02:39;;;;;;;28.45;12.23;;;0.20;99.90;;;-1.79;98.65;102146.41;5038234;28;20045;-40
2021/01/10 06:05:19;;;;;;;29.10;13.10;;;0.20;99.90;;;-1.79;98.04;102151.75;5053778;28;20067;-40
2021/01/10 06:07:48;;;;;;;28.05;11.48;;;0.20;99.90;;;-1.76;97.99;102154.22;5070512;28;20049;-40
2021/01/10 06:10:35;;;;;;;28.45;11.80;;;0.20;99.90;;;-1.75;98.42;102147.94;5071828;28;20396;-40
2021/01/10 06:13:05;;;;;;;26.63;11.13;;;0.20;99.90;;;-1.73;98.40;102151.34;5036778;28;20055;-40
2021/01/10 06:15:35;;;;;;;30.35;13.02;;;0.20;99.90;;;-1.73;98.17;102152.19;5037773;28;20096;-40
2021/01/10 06:18:05;;;;;;;28.75;12.38;;;0.20;99.90;;;-1.68;97.84;102154.59;5087267;28;20062;-40
2021/01/10 06:20:34;;;;;;;29.42;12.32;;;0.30;99.90;;;-1.69;98.45;102150.19;5021085;28;20055;-40
2021/01/10 06:23:05;;;;;;;30.67;12.43;;;0.30;99.90;;;-1.66;98.45;102146.47;5070351;28;20040;-40
2021/01/10 06:25:38;;;;;;;31.88;13.02;;;0.30;99.90;;;-1.66;98.80;102139.28;5070213;28;20044;-40
2021/01/10 06:28:26;;;;;;;29.83;12.73;;;0.30;99.90;;;-1.65;98.67;102146.34;5070637;28;20041;-40
2021/01/10 06:30:59;;;;;;;28.42;12.73;;;0.30;99.90;;;-1.64;98.02;102155.25;5070296;28;20434;-40
2021/01/10 06:33:31;;;;;;;33.22;12.88;;;0.30;99.90;;;-1.65;98.61;102151.72;5069938;28;20097;-40
2021/01/10 06:36:08;;;;;;;27.60;11.80;;;0.30;99.90;;;-1.66;98.37;102155.34;5053626;28;20476;-40
2021/01/10 06:38:38;;;;;;;25.63;11.48;;;0.30;99.90;;;-1.66;98.13;102146.47;5053850;28;20476;-40
2021/01/10 06:41:25;;;;;;;28.65;12.32;;;0.30;99.90;;;-1.69;98.95;102152.88;5070330;28;20049;-40
2021/01/10 06:43:59;;;;;;;28.05;12.13;;;0.30;99.90;;;-1.69;98.21;102152.88;5053412;28;20048;-40
2021/01/10 06:46:28;;;;;;;30.52;12.15;;;0.30;99.90;;;-1.66;98.51;102155.34;5053617;28;20140;-40
2021/01/10 06:48:56;;;;;;;27.92;11.38;;;0.30;99.90;;;-1.66;98.85;102159.84;5053887;28;20048;-40
2021/01/10 06:51:30;;;;;;;28.70;11.88;;;0.30;99.90;;;-1.66;98.02;102155.34;5070508;28;20056;-40
2021/01/10 06:54:04;;;;;;;30.83;11.45;;;0.30;99.90;;;-1.67;98.72;102150.09;5036803;28;20113;-40
2021/01/10 06:56:33;;;;;;;26.25;11.32;;;0.30;99.90;;;-1.65;98.57;102165.09;5053380;28;20051;-40
2021/01/10 06:59:11;;;;;;;28.90;11.60;;;0.30;99.90;;;-1.63;98.54;102165.00;5070019;28;20098;-40
2021/01/10 07:04:36;;;;;;;31.02;12.23;;;0.40;99.90;;;-1.57;98.22;102158.41;5069711;28;20048;-40
2021/01/10 07:07:04;;;;;;;32.17;12.10;;;0.40;99.90;;;-1.60;98.97;102157.63;5086920;28;20068;-40
2021/01/10 07:09:53;;;;;;;31.80;11.90;;;0.40;99.90;;;-1.62;98.61;102164.88;5053299;28;20071;-40
2021/01/10 07:12:23;;;;;;;27.40;10.63;;;0.40;99.90;;;-1.62;98.72;102170.25;5056583;28;20418;-40
2021/01/10 07:14:51;;;;;;;31.35;11.25;;;0.30;99.90;;;-1.63;98.90;102168.53;5052792;28;20051;-40
2021/01/10 07:17:19;;;;;;;30.10;12.27;;;0.30;99.90;;;-1.63;98.56;102163.16;5053489;28;20037;-40
2021/01/10 07:19:51;;;;;;;27.63;11.45;;;0.30;99.90;;;-1.59;98.95;102166.53;5036929;28;20079;-40
2021/01/10 07:22:31;;;;;;;26.70;11.13;;;0.40;99.90;;;-1.61;98.94;102171.13;5069672;28;20044;-40
2021/01/10 07:25:29;;;;;;;32.75;11.75;;;0.30;99.90;;;-1.61;98.22;102161.25;5072743;28;20067;-40
2021/01/10 07:27:56;;;;;;;25.42;11.23;;;0.40;99.90;;;-1.60;98.10;102159.44;5040238;28;20403;-40
2021/01/10 07:30:25;;;;;;;28.50;12.13;;;0.40;99.90;;;-1.54;98.84;102166.22;5056842;28;20048;-40
2021/01/10 07:32:52;;;;;;;29.88;11.48;;;0.40;99.90;;;-1.57;99.11;102158.41;5057011;28;20044;-40
2021/01/10 07:35:20;;;;;;;32.67;12.45;;;0.40;99.90;;;-1.60;98.54;102168.31;5040213;28;20032;-40
2021/01/10 07:37:51;;;;;;;39.33;13.18;;;0.40;99.90;;;-1.58;98.77;102175.44;5024074;28;20127;-40
2021/01/10 07:40:29;;;;;;;29.98;12.43;;;0.40;99.90;;;-1.59;98.42;102163.84;5073396;28;20445;-40
2021/01/10 07:43:02;;;;;;;35.47;13.63;;;0.40;99.90;;;-1.56;98.79;102171.66;5073503;28;20053;-40
2021/01/10 07:45:39;;;;;;;34.60;12.93;;;0.40;99.90;;;-1.60;97.90;102178.19;5074377;28;20044;-40
2021/01/10 07:48:08;;;;;;;31.92;13.15;;;0.40;99.90;;;-1.64;97.85;102184.69;5040248;28;20048;-40
2021/01/10 07:50:35;;;;;;;30.38;11.65;;;0.30;99.90;;;-1.64;98.03;102179.34;5072961;28;20079;-40
2021/01/10 07:53:03;;;;;;;31.95;12.85;;;0.30;99.90;;;-1.60;97.71;102180.88;5040106;28;20463;-40
2021/01/10 07:55:32;;;;;;;27.55;12.00;;;0.40;99.90;;;-1.56;98.32;102184.22;5056375;28;20036;-40
2021/01/10 07:58:02;;;;;;;23.90;10.98;;;0.40;99.90;;;-1.56;98.63;102184.22;5073670;28;20135;-40
2021/01/10 08:00:48;;;;;;;28.98;12.63;;;0.40;99.90;;;-1.56;98.40;102194.91;5072809;28;20032;-40
2021/01/10 08:03:27;;;;;;;27.13;11.45;;;0.40;99.90;;;-1.60;97.89;102192.41;5089367;28;20049;-40
2021/01/10 08:05:57;;;;;;;26.63;10.85;;;0.40;99.90;;;-1.57;97.62;102191.38;5056582;28;20044;-40
2021/01/10 08:08:45;;;;;;;27.85;11.70;;;0.40;99.90;;;-1.53;98.11;102197.41;5089813;28;20048;-40
2021/01/10 08:11:38;;;;;;;29.65;12.13;;;0.40;99.90;;;-1.49;97.55;102201.59;5072401;28;20230;-40
2021/01/10 08:14:15;;;;;;;24.15;11.48;;;0.40;99.90;;;-1.44;97.73;102196.78;5089367;28;20060;-40
2021/01/10 08:16:42;;;;;;;24.52;11.27;;;0.50;99.90;;;-1.45;97.53;102195.06;5056140;28;20483;-40
2021/01/10 08:19:09;;;;;;;28.70;12.75;;;0.50;99.90;;;-1.42;97.44;102194.88;5056112;28;20033;-40
2021/01/10 08:21:36;;;;;;;27.10;11.93;;;0.50;99.90;;;-1.37;98.45;102205.28;5055930;28;20036;-40
2021/01/10 08:24:07;;;;;;;30.00;12.50;;;0.50;99.90;;;-1.38;97.97;102193.69;5072255;28;20526;-40
2021/01/10 08:26:39;;;;;;;30.02;12.35;;;0.60;99.90;;;-1.38;98.17;102192.84;5073663;28;20040;-40
2021/01/10 08:29:07;;;;;;;26.10;11.77;;;0.60;99.90;;;-1.36;97.25;102198.97;5089123;28;20094;-40
2021/01/10 08:31:37;;;;;;;29.48;12.10;;;0.60;99.90;;;-1.37;97.70;102195.41;5055567;28;20064;-40
2021/01/10 08:34:09;;;;;;;31.42;13.25;;;0.60;99.90;;;-1.32;97.65;102198.69;5054801;28;20047;-40
2021/01/10 08:36:37;;;;;;;27.23;12.15;;;0.60;99.90;;;-1.27;97.59;102203.72;5089061;28;20067;-40
2021/01/10 08:39:09;;;;;;;31.77;12.65;;;0.60;99.90;;;-1.26;97.11;102193.88;5072180;28;20068;-40
2021/01/10 08:41:47;;;;;;;30.08;12.23;;;0.70;99.90;;;-1.26;96.71;102197.41;5056074;28;20067;-40
2021/01/10 08:44:19;;;;;;;26.85;13.05;;;0.60;99.90;;;-1.24;97.08;102200.81;5072115;28;20072;-40
2021/01/10 08:46:50;;;;;;;30.67;13.05;;;0.70;99.90;;;-1.21;97.42;102205.13;5072115;28;20072;-40
2021/01/10 08:49:24;;;;;;;26.00;12.38;;;0.70;99.90;;;-1.20;97.48;102202.34;5055588;28;20048;-40
2021/01/10 08:51:53;;;;;;;24.08;11.48;;;0.70;99.90;;;-1.17;97.73;102195.94;5073102;28;20036;-40
2021/01/10 08:54:23;;;;;;;28.17;12.57;;;0.70;99.90;;;-1.13;97.00;102201.97;5072874;28;20120;-40
2021/01/10 08:56:55;;;;;;;26.77;12.40;;;0.70;99.90;;;-1.13;97.33;102207.31;5071885;28;20131;-40
2021/01/10 08:59:34;;;;;;;23.67;11.75;;;0.80;99.90;;;-1.10;96.90;102210.63;5072035;28;20049;-40
2021/01/10 09:02:11;;;;;;;23.67;11.23;;;0.80;99.90;;;-1.07;97.73;102209.59;5071881;28;20052;-40
2021/01/10 09:04:42;;;;;;;24.17;11.45;;;0.80;99.90;;;-1.04;96.89;102204.88;5071563;28;20124;-40
2021/01/10 09:07:10;;;;;;;25.35;12.52;;;0.80;99.90;;;-1.02;96.90;102205.66;5072885;28;20079;-40
2021/01/10 09:09:59;;;;;;;25.83;12.07;;;0.90;99.90;;;-0.94;97.00;102201.59;5088433;28;20098;-39
2021/01/10 09:12:42;;;;;;;31.77;13.75;;;0.90;99.90;;;-0.92;96.73;102211.25;5072687;28;20415;-40
2021/01/10 09:15:31;;;;;;;28.92;12.68;;;0.90;99.90;;;-0.91;97.39;102223.69;5072347;28;20098;-40
2021/01/10 09:18:04;;;;;;;30.05;11.98;;;1.00;99.90;;;-0.91;96.93;102218.31;5054869;28;20048;-40
2021/01/10 09:20:39;;;;;;;27.35;11.30;;;1.00;99.90;;;-0.87;96.73;102213.59;5088159;28;20048;-40
2021/01/10 09:23:09;;;;;;;27.30;12.07;;;1.00;99.90;;;-0.83;97.06;102208.91;5071397;28;20082;-40
2021/01/10 09:25:37;;;;;;;27.85;12.38;;;1.10;99.90;;;-0.78;97.20;102215.69;5071087;28;20044;-40
2021/01/10 09:28:25;;;;;;;27.88;12.52;;;1.10;99.90;;;-0.76;97.23;102219.13;5021851;28;20051;-40
2021/01/10 09:30:56;;;;;;;25.83;11.52;;;1.10;99.90;;;-0.71;96.62;102215.25;5072515;28;20052;-40
2021/01/10 09:33:36;;;;;;;27.45;11.68;;;1.10;99.90;;;-0.67;96.55;102219.44;5070757;28;20056;-40
2021/01/10 09:36:05;;;;;;;27.23;11.63;;;1.20;99.90;;;-0.64;96.44;102205.81;5070979;28;20044;-40
2021/01/10 09:38:33;;;;;;;28.17;12.35;;;1.20;99.90;;;-0.60;97.05;102218.94;5072395;28;20051;-40
2021/01/10 09:41:13;;;;;;;24.05;11.85;;;1.20;99.90;;;-0.53;96.66;102216.69;5070861;28;20036;-40
2021/01/10 09:43:46;;;;;;;30.88;13.55;;;1.30;99.90;;;-0.45;96.63;102219.69;5071983;28;20442;-40
2021/01/10 09:46:25;;;;;;;31.55;12.98;;;1.40;99.90;;;-0.45;96.76;102206.28;5071362;28;20044;-40
2021/01/10 09:49:00;;;;;;;32.22;13.60;;;1.40;99.90;;;-0.38;96.83;102214.78;5072352;28;20422;-40
2021/01/10 09:51:53;;;;;;;34.13;12.80;;;1.40;99.90;;;-0.33;96.46;102212.63;5071017;28;20044;-40
2021/01/10 09:54:25;;;;;;;26.15;11.90;;;1.50;99.90;;;-0.25;97.02;102206.72;5087279;28;20041;-40
2021/01/10 09:56:56;;;;;;;34.15;13.73;;;1.60;99.90;;;-0.21;96.26;102208.22;5070673;28;20096;-40
2021/01/10 09:59:45;;;;;;;27.17;13.68;;;1.60;99.90;;;-0.15;96.57;102204.22;5087591;28;20529;-40
2021/01/10 10:02:26;;;;;;;37.70;14.45;;;1.70;99.90;;;-0.13;96.20;102206.81;5072001;28;20408;-40
2021/01/10 10:05:09;;;;;;;32.50;14.13;;;1.70;99.90;;;-0.02;96.08;102212.28;5070648;28;20044;-40
2021/01/10 10:07:41;;;;;;;32.75;13.85;;;1.80;99.90;;;0.04;95.93;102217.22;5072099;28;20064;-40
2021/01/10 10:10:21;;;;;;;29.00;13.07;;;1.80;99.90;;;0.10;95.43;102219.47;5070412;28;20048;-40
2021/01/10 10:13:09;;;;;;;32.10;12.95;;;1.90;99.90;;;0.12;95.43;102217.53;5070779;28;20135;-40
2021/01/10 10:15:40;;;;;;;24.92;12.35;;;1.90;99.90;;;0.16;94.65;102220.00;5070190;28;20509;-40
2021/01/10 10:18:15;;;;;;;28.50;13.15;;;2.00;99.90;;;0.18;94.89;102221.63;5087248;28;20082;-40
2021/01/10 10:20:43;;;;;;;31.40;13.90;;;2.00;99.90;;;0.22;94.32;102219.53;5087294;28;20040;-40
2021/01/10 10:23:13;;;;;;;30.95;13.65;;;2.00;99.90;;;0.28;94.33;102219.13;5070326;28;20170;-40
2021/01/10 10:25:42;;;;;;;25.50;11.77;;;2.10;99.90;;;0.31;94.26;102226.97;5072649;28;20090;-40
2021/01/10 10:28:13;;;;;;;27.55;13.15;;;2.10;99.90;;;0.36;94.26;102226.59;5087141;28;20076;-40
2021/01/10 10:30:42;;;;;;;27.65;12.32;;;2.10;99.90;;;0.40;94.39;102220.91;5070185;28;20098;-40